createdAt,value
2022-10-09T00:04:50.089Z,5.47
2022-10-09T00:09:49.958Z,5.47
2022-10-09T00:14:49.934Z,5.57
2022-10-09T00:19:49.854Z,5.66
2022-10-09T00:24:49.785Z,5.69
2022-10-09T00:29:49.803Z,5.76
2022-10-09T00:34:49.665Z,5.77
2022-10-09T00:39:49.626Z,5.77
2022-10-09T00:44:49.606Z,5.90
2022-10-09T00:49:49.504Z,5.97
2022-10-09T00:54:49.435Z,6.02
2022-10-09T00:59:49.387Z,6.11
2022-10-09T01:04:49.324Z,6.13
2022-10-09T01:09:49.268Z,6.24
2022-10-09T01:14:49.204Z,6.28
2022-10-09T01:19:49.144Z,6.32
2022-10-09T01:24:49.098Z,6.25
2022-10-09T01:29:49.055Z,6.21
2022-10-09T01:34:48.964Z,6.24
2022-10-09T01:39:48.914Z,6.13
2022-10-09T01:44:48.826Z,6.08
2022-10-09T01:49:48.787Z,6.05
2022-10-09T01:54:48.726Z,5.97
2022-10-09T01:59:48.680Z,6.06
2022-10-09T02:04:48.646Z,6.05
2022-10-09T02:09:48.582Z,6.02
2022-10-09T02:14:48.485Z,5.91
2022-10-09T02:19:48.445Z,5.90
2022-10-09T02:24:48.380Z,5.90
2022-10-09T02:29:48.317Z,5.85
2022-10-09T02:34:48.298Z,5.90
2022-10-09T02:39:48.235Z,5.93
2022-10-09T02:44:48.167Z,5.97
2022-10-09T02:49:48.095Z,5.97
2022-10-09T02:54:48.037Z,6.02
2022-10-09T02:59:47.965Z,6.03
2022-10-09T03:04:47.910Z,6.02
2022-10-09T03:09:47.855Z,5.98
2022-10-09T03:14:47.794Z,6.02
2022-10-09T03:19:47.744Z,5.97
2022-10-09T03:24:47.676Z,6.05
2022-10-09T03:29:47.617Z,5.93
2022-10-09T03:34:47.567Z,5.97
2022-10-09T03:39:47.518Z,5.91
2022-10-09T03:44:47.504Z,5.80
2022-10-09T03:49:47.406Z,5.85
2022-10-09T03:54:47.332Z,5.88
2022-10-09T03:59:47.269Z,5.91
2022-10-09T04:04:47.212Z,5.80
2022-10-09T04:09:47.174Z,5.84
2022-10-09T04:14:47.099Z,5.87
2022-10-09T04:19:47.046Z,5.79
2022-10-09T04:24:46.996Z,5.80
2022-10-09T04:29:46.928Z,5.79
2022-10-09T04:34:46.882Z,5.82
2022-10-09T04:39:46.855Z,5.84
2022-10-09T04:44:46.761Z,5.91
2022-10-09T04:49:46.697Z,5.80
2022-10-09T04:54:46.645Z,5.72
2022-10-09T04:59:46.598Z,5.66
2022-10-09T05:04:46.548Z,5.67
2022-10-09T05:09:46.477Z,5.54
2022-10-09T05:14:46.432Z,5.51
2022-10-09T05:19:46.373Z,5.52
2022-10-09T05:24:46.335Z,5.55
2022-10-09T05:29:46.251Z,5.55
2022-10-09T05:34:46.192Z,5.50
2022-10-09T05:39:46.139Z,5.44
2022-10-09T05:44:46.089Z,5.30
2022-10-09T05:49:46.049Z,5.29
2022-10-09T05:54:45.985Z,5.32
2022-10-09T05:59:45.919Z,5.34
2022-10-09T06:04:45.848Z,5.36
2022-10-09T06:09:45.789Z,5.36
2022-10-09T06:14:45.748Z,5.41
2022-10-09T06:19:45.691Z,5.39
2022-10-09T06:24:45.627Z,5.39
2022-10-09T06:29:45.578Z,5.40
2022-10-09T06:34:45.508Z,5.54
2022-10-09T06:39:45.460Z,5.65
2022-10-09T06:44:45.431Z,5.69
2022-10-09T06:49:45.343Z,5.76
2022-10-09T06:54:45.287Z,5.72
2022-10-09T06:59:45.230Z,5.82
2022-10-09T07:04:45.179Z,6.00
2022-10-09T07:09:45.121Z,6.27
2022-10-09T07:14:45.058Z,6.43
2022-10-09T07:19:45.005Z,6.61
2022-10-09T07:24:44.939Z,6.75
2022-10-09T07:29:44.894Z,6.96
2022-10-09T07:34:44.830Z,7.16
2022-10-09T07:39:45.193Z,7.44
2022-10-09T07:44:44.691Z,7.95
2022-10-09T07:49:44.650Z,8.49
2022-10-09T07:54:44.570Z,8.85
2022-10-09T07:59:44.592Z,9.32
2022-10-09T08:04:44.431Z,9.72
2022-10-09T08:09:44.360Z,9.98
2022-10-09T08:14:44.303Z,10.02
2022-10-09T08:19:44.236Z,10.21
2022-10-09T08:24:44.171Z,10.54
2022-10-09T08:29:44.122Z,10.98
2022-10-09T08:34:44.040Z,11.18
2022-10-09T08:39:43.983Z,11.49
2022-10-09T08:44:43.919Z,11.46
2022-10-09T08:49:44.173Z,11.61
2022-10-09T08:54:43.792Z,11.96
2022-10-09T08:59:43.724Z,12.46
2022-10-09T09:04:43.672Z,12.58
2022-10-09T09:09:43.593Z,12.63
2022-10-09T09:14:43.525Z,12.79
2022-10-09T09:19:43.477Z,13.02
2022-10-09T09:24:43.423Z,13.20
2022-10-09T09:29:43.353Z,13.47
2022-10-09T09:34:43.267Z,13.79
2022-10-09T09:44:44.166Z,13.91
2022-10-09T09:49:43.099Z,14.21
2022-10-09T09:54:43.017Z,14.27
2022-10-09T09:59:42.974Z,14.30
2022-10-09T10:04:43.364Z,14.59
2022-10-09T10:09:42.840Z,14.77
2022-10-09T10:14:42.767Z,14.92
2022-10-09T10:19:42.711Z,15.03
2022-10-09T10:24:42.630Z,15.10
2022-10-09T10:29:42.571Z,15.35
2022-10-09T10:34:42.524Z,15.26
2022-10-09T10:39:42.454Z,15.50
2022-10-09T10:44:42.394Z,15.63
2022-10-09T10:49:42.325Z,15.56
2022-10-09T10:54:42.263Z,15.54
2022-10-09T10:59:42.195Z,15.56
2022-10-09T11:04:42.143Z,15.44
2022-10-09T11:09:42.087Z,15.58
2022-10-09T11:14:42.050Z,15.70
2022-10-09T11:19:45.399Z,15.87
2022-10-09T11:24:41.921Z,15.60
2022-10-09T11:29:41.837Z,15.54
2022-10-09T11:34:41.811Z,15.45
2022-10-09T11:39:41.709Z,15.51
2022-10-09T11:44:41.660Z,15.52
2022-10-09T11:49:41.593Z,15.63
2022-10-09T11:54:41.512Z,15.69
2022-10-09T11:59:41.452Z,15.65
2022-10-09T12:04:54.486Z,15.68
2022-10-09T12:09:42.353Z,15.72
2022-10-09T12:14:41.257Z,15.73
2022-10-09T12:19:41.195Z,15.87
2022-10-09T12:24:41.125Z,16.02
2022-10-09T12:29:41.058Z,16.02
2022-10-09T12:34:41.007Z,15.98
2022-10-09T12:39:40.956Z,16.02
2022-10-09T12:44:41.187Z,15.95
2022-10-09T12:49:40.819Z,15.95
2022-10-09T12:54:40.748Z,15.83
2022-10-09T12:59:40.672Z,15.77
2022-10-09T13:04:40.611Z,15.69
2022-10-09T13:09:40.567Z,15.68
2022-10-09T13:14:40.489Z,15.56
2022-10-09T13:19:40.432Z,15.45
2022-10-09T13:24:40.407Z,15.36
2022-10-09T13:29:40.294Z,15.32
2022-10-09T13:34:40.252Z,15.22
2022-10-09T13:39:40.166Z,15.19
2022-10-09T13:44:40.125Z,15.20
2022-10-09T13:49:40.056Z,15.15
2022-10-09T13:54:40.007Z,15.12
2022-10-09T13:59:39.929Z,15.15
2022-10-09T14:04:39.852Z,15.10
2022-10-09T14:09:39.808Z,15.03
2022-10-09T14:14:40.766Z,14.90
2022-10-09T14:19:39.690Z,14.74
2022-10-09T14:24:39.677Z,14.66
2022-10-09T14:29:39.892Z,14.53
2022-10-09T14:34:39.532Z,14.40
2022-10-09T14:39:39.427Z,14.30
2022-10-09T14:44:39.393Z,14.27
2022-10-09T14:49:39.292Z,14.12
2022-10-09T14:54:39.265Z,14.03
2022-10-09T14:59:39.165Z,13.98
2022-10-09T15:04:39.187Z,13.96
2022-10-09T15:09:39.046Z,13.83
2022-10-09T15:14:38.980Z,13.79
2022-10-09T15:19:38.916Z,13.72
2022-10-09T15:24:38.882Z,13.55
2022-10-09T15:29:38.759Z,13.47
2022-10-09T15:34:40.948Z,13.42
2022-10-09T15:39:38.680Z,13.32
2022-10-09T15:44:38.576Z,13.26
2022-10-09T15:49:38.529Z,13.11
2022-10-09T15:54:38.461Z,13.04
2022-10-09T15:59:38.404Z,12.91
2022-10-09T16:04:38.361Z,12.79
2022-10-09T16:09:38.258Z,12.68
2022-10-09T16:14:38.213Z,12.59
2022-10-09T16:19:38.156Z,12.54
2022-10-09T16:24:38.104Z,12.44
2022-10-09T16:29:38.001Z,12.33
2022-10-09T16:34:37.974Z,12.25
2022-10-09T16:39:37.886Z,12.21
2022-10-09T16:44:37.825Z,12.08
2022-10-09T16:49:37.755Z,12.03
2022-10-09T16:54:37.692Z,11.93
2022-10-09T16:59:37.646Z,11.82
2022-10-09T17:04:37.585Z,11.77
2022-10-09T17:09:37.485Z,11.70
2022-10-09T17:14:37.469Z,11.69
2022-10-09T17:19:37.387Z,11.66
2022-10-09T17:24:37.308Z,11.62
2022-10-09T17:29:37.283Z,11.54
2022-10-09T17:34:37.188Z,11.46
2022-10-09T17:39:37.110Z,11.48
2022-10-09T17:44:37.058Z,11.45
2022-10-09T17:49:36.980Z,11.38
2022-10-09T17:54:36.927Z,11.38
2022-10-09T17:59:36.858Z,11.31
2022-10-09T18:04:36.839Z,11.23
2022-10-09T18:09:36.740Z,11.22
2022-10-09T18:14:36.692Z,11.22
2022-10-09T18:19:36.613Z,11.23
2022-10-09T18:24:36.542Z,11.12
2022-10-09T18:29:36.482Z,11.11
2022-10-09T18:34:39.203Z,11.04
2022-10-09T18:39:36.362Z,11.03
2022-10-09T18:44:36.327Z,10.95
2022-10-09T18:49:36.275Z,10.90
2022-10-09T18:54:36.181Z,10.87
2022-10-09T18:59:36.124Z,10.90
2022-10-09T19:04:36.058Z,10.91
2022-10-09T19:09:35.985Z,10.87
2022-10-09T19:14:35.953Z,10.85
2022-10-09T19:19:35.864Z,10.80
2022-10-09T19:24:35.786Z,10.73
2022-10-09T19:29:35.734Z,10.75
2022-10-09T19:34:35.666Z,10.70
2022-10-09T19:39:35.598Z,10.72
2022-10-09T19:44:35.559Z,10.68
2022-10-09T19:49:35.499Z,10.68
2022-10-09T19:54:35.408Z,10.65
2022-10-09T19:59:35.346Z,10.64
2022-10-09T20:04:35.298Z,10.60
2022-10-09T20:09:35.244Z,10.60
2022-10-09T20:14:35.164Z,10.58
2022-10-09T20:19:35.100Z,10.57
2022-10-09T20:24:35.030Z,10.54
2022-10-09T20:29:34.970Z,10.52
2022-10-09T20:34:34.930Z,10.54
2022-10-09T20:39:34.837Z,10.54
2022-10-09T20:44:34.803Z,10.46
2022-10-09T20:49:34.713Z,10.49
2022-10-09T20:54:34.665Z,10.42
2022-10-09T20:59:34.592Z,10.38
2022-10-09T21:04:34.543Z,10.31
2022-10-09T21:09:34.443Z,10.39
2022-10-09T21:14:34.395Z,10.27
2022-10-09T21:19:34.323Z,10.24
2022-10-09T21:24:34.293Z,10.30
2022-10-09T21:29:34.194Z,10.12
2022-10-09T21:34:34.144Z,9.88
2022-10-09T21:39:34.107Z,9.67
2022-10-09T21:44:34.023Z,9.54
2022-10-09T21:49:33.968Z,9.37
2022-10-09T21:54:33.916Z,9.22
2022-10-09T21:59:33.813Z,9.09
2022-10-09T22:04:33.755Z,8.99
2022-10-09T22:09:33.678Z,8.95
2022-10-09T22:14:33.636Z,8.92
2022-10-09T22:19:33.578Z,8.86
2022-10-09T22:24:33.497Z,8.80
2022-10-09T22:29:33.418Z,8.81
2022-10-09T22:34:33.377Z,8.85
2022-10-09T22:39:33.286Z,8.88
2022-10-09T22:44:33.227Z,8.81
2022-10-09T22:49:33.163Z,8.78
2022-10-09T22:54:33.119Z,8.85
2022-10-09T22:59:33.044Z,8.86
2022-10-09T23:04:32.973Z,8.85
2022-10-09T23:09:32.889Z,8.81
2022-10-09T23:14:32.880Z,8.81
2022-10-09T23:19:32.759Z,8.86
2022-10-09T23:24:32.686Z,8.80
2022-10-09T23:29:32.641Z,8.80
2022-10-09T23:34:32.549Z,8.83
2022-10-09T23:39:32.479Z,8.83
2022-10-09T23:44:32.410Z,8.86
2022-10-09T23:49:32.383Z,8.83
2022-10-09T23:54:32.284Z,8.78
2022-10-09T23:59:32.202Z,8.83
